Taiheimaru — JM6135 — position and weather

sailwx.info

Track history (hours):
 
Tides and Currents Weather Stations Pressure Air Temp Water Temp Dewpoint Dewpoint Depression Visibility Wind Speed Wind Dir Waves Ship Positions

Taiheimaru

Last reported at 2015-Jul-29 10:10 UTC. Time now 2015-Aug-02 08:19 UTC.
Position N 34°37' E 134°57'.

Length 78 m.

Type: Cargo ship. MMSI: 431400082.

Date/timePositionNaut miles runAvg speedWind from/ knotsBaromVisibWave heightAir tempDewpointWater temp
2015-Jul-29 10:10N 34°37' E 134°57'813.7
2015-Jul-29 09:33N 34°36' E 135°08'1411.8
2015-Jul-29 08:21N 34°37' E 135°25'0 0.1
2015-Jul-29 07:30N 34°37' E 135°25'1 0.3
2015-Jul-29 04:26N 34°37' E 135°23'0 0.0
2015-Jul-29 02:16N 34°38' E 135°23'710.2
2015-Jul-29 01:33N 34°39' E 135°15'1 0.8
2015-Jul-29 00:30N 34°38' E 135°15'0 0.1
2015-Jul-28 23:30N 34°38' E 135°15'0 0.1
2015-Jul-28 22:24N 34°38' E 135°15'0 0.0
2015-Jul-28 21:30N 34°38' E 135°15'0 0.0
2015-Jul-28 20:21N 34°38' E 135°15'0 0.0
2015-Jul-28 19:33N 34°38' E 135°15'0 0.0
2015-Jul-28 18:30N 34°38' E 135°15'3 3.2
2015-Jul-28 17:33N 34°37' E 135°12'13 0.4
2015-Jul-27 06:14N 34°37' E 134°56'812.2
2015-Jul-27 05:33N 34°36' E 135°06'7 6.8
2015-Jul-27 04:30N 34°40' E 135°14'0 0.0
2015-Jul-27 03:23N 34°40' E 135°14'6 6.5
2015-Jul-27 02:32N 34°39' E 135°20'3 3.6
2015-Jul-27 01:33N 34°37' E 135°24'8 7.1
2015-Jul-27 00:30N 34°41' E 135°16'2 1.8
2015-Jul-26 23:23N 34°39' E 135°15'3 3.1
2015-Jul-26 22:33N 34°41' E 135°13'0 0.0
2015-Jul-26 21:33N 34°41' E 135°13'0 0.0
2015-Jul-26 20:30N 34°41' E 135°13'0 0.0
2015-Jul-26 19:30N 34°41' E 135°13'0 0.0
2015-Jul-26 18:30N 34°41' E 135°13'0 0.0
2015-Jul-26 17:30N 34°41' E 135°13'0 0.0
2015-Jul-26 16:33N 34°41' E 135°13'0 0.0
2015-Jul-26 15:33N 34°41' E 135°13'0 0.0
2015-Jul-26 14:33N 34°41' E 135°13'0 0.0
2015-Jul-26 13:33N 34°41' E 135°13'0 0.0
2015-Jul-26 12:33N 34°41' E 135°13'0 0.0
2015-Jul-26 11:24N 34°41' E 135°13'0 0.0
2015-Jul-26 10:03N 34°41' E 135°13'0 0.0
2015-Jul-26 09:33N 34°41' E 135°13'0 0.0
2015-Jul-26 08:18N 34°41' E 135°13'0 0.0
2015-Jul-26 07:30N 34°41' E 135°13'0 0.0
2015-Jul-26 06:30N 34°41' E 135°13'0 0.0
2015-Jul-26 05:29N 34°41' E 135°13'0 0.0
2015-Jul-26 04:29N 34°41' E 135°13'0 0.0
2015-Jul-26 03:32N 34°41' E 135°13'0 0.0
2015-Jul-26 02:32N 34°41' E 135°13'0 0.0
2015-Jul-26 01:32N 34°41' E 135°13'0 0.0
2015-Jul-26 00:17N 34°41' E 135°13'0 0.0
2015-Jul-25 23:30N 34°41' E 135°13'0 0.0
2015-Jul-25 22:29N 34°41' E 135°13'0 0.0
2015-Jul-25 21:30N 34°41' E 135°13'0 0.0
2015-Jul-25 20:30N 34°41' E 135°13'0 0.0
2015-Jul-25 19:30N 34°41' E 135°13'0 0.0
2015-Jul-25 18:30N 34°41' E 135°13'0 0.0
2015-Jul-25 17:27N 34°41' E 135°13'0 0.0
2015-Jul-25 16:33N 34°41' E 135°13'0 0.0
2015-Jul-25 15:23N 34°41' E 135°13'4 4.4
2015-Jul-25 14:33N 34°38' E 135°14'14 0.5
2015-Jul-24 08:14N 34°37' E 134°58'811.3
2015-Jul-24 07:33N 34°36' E 135°07'9 9.3
2015-Jul-24 06:33N 34°41' E 135°17'0 0.1
2015-Jul-24 05:10N 34°41' E 135°17'2 2.5
2015-Jul-24 04:11N 34°39' E 135°15'1 1.2
2015-Jul-24 03:27N 34°40' E 135°15'0 0.0
2015-Jul-24 02:15N 34°40' E 135°15'0 0.0
2015-Jul-24 01:33N 34°40' E 135°15'0 0.2
2015-Jul-24 00:32N 34°40' E 135°14'1 0.6
2015-Jul-23 23:29N 34°40' E 135°14'2 0.9
2015-Jul-23 21:33N 34°38' E 135°15'1 0.6
2015-Jul-23 20:33N 34°38' E 135°15'10 0.3
2015-Jul-22 09:33N 34°36' E 135°03'1110.6
2015-Jul-22 08:32N 34°38' E 135°16'8 5.3
2015-Jul-22 07:06N 34°38' E 135°25'610.6
2015-Jul-22 06:32N 34°40' E 135°19'2 1.7
2015-Jul-22 05:33N 34°41' E 135°17'1 0.5
2015-Jul-22 04:27N 34°41' E 135°16'0 0.0
2015-Jul-22 03:33N 34°41' E 135°16'2 1.7
2015-Jul-22 02:27N 34°39' E 135°15'2 1.8
2015-Jul-22 01:24N 34°41' E 135°16'0 0.0
2015-Jul-22 00:33N 34°41' E 135°16'1 0.9
2015-Jul-21 23:24N 34°41' E 135°17'7 3.9
2015-Jul-21 21:33N 34°36' E 135°11'12 0.4
2015-Jul-20 13:25N 34°37' E 134°56'1113.0
2015-Jul-20 12:33N 34°36' E 135°10'7 6.8
2015-Jul-20 11:29N 34°41' E 135°17'0 0.0
2015-Jul-20 10:33N 34°41' E 135°17'2 2.3
2015-Jul-20 09:33N 34°39' E 135°15'2 2.3
2015-Jul-20 08:33N 34°37' E 135°13'  
Track history (hours):
 
Tides and Currents Weather Stations Pressure Air Temp Water Temp Dewpoint Dewpoint Depression Visibility Wind Speed Wind Dir Waves Ship Positions

Taiheimaru

Last reported at 2015-Jul-29 10:10 UTC. Time now 2015-Aug-02 08:19 UTC.
Position N 34°37' E 134°57'.

Length 78 m.

Type: Cargo ship. MMSI: 431400082.

Date/timePositionNaut miles runAvg speedWind from/ knotsBaromVisibWave heightAir tempDewpointWater temp
2015-Jul-29 10:10N 34°37' E 134°57'813.7
2015-Jul-29 09:33N 34°36' E 135°08'1411.8
2015-Jul-29 08:21N 34°37' E 135°25'0 0.1
2015-Jul-29 07:30N 34°37' E 135°25'1 0.3
2015-Jul-29 04:26N 34°37' E 135°23'0 0.0
2015-Jul-29 02:16N 34°38' E 135°23'710.2
2015-Jul-29 01:33N 34°39' E 135°15'1 0.8
2015-Jul-29 00:30N 34°38' E 135°15'0 0.1
2015-Jul-28 23:30N 34°38' E 135°15'0 0.1
2015-Jul-28 22:24N 34°38' E 135°15'0 0.0
2015-Jul-28 21:30N 34°38' E 135°15'0 0.0
2015-Jul-28 20:21N 34°38' E 135°15'0 0.0
2015-Jul-28 19:33N 34°38' E 135°15'0 0.0
2015-Jul-28 18:30N 34°38' E 135°15'3 3.2
2015-Jul-28 17:33N 34°37' E 135°12'13 0.4
2015-Jul-27 06:14N 34°37' E 134°56'812.2
2015-Jul-27 05:33N 34°36' E 135°06'7 6.8
2015-Jul-27 04:30N 34°40' E 135°14'0 0.0
2015-Jul-27 03:23N 34°40' E 135°14'6 6.5
2015-Jul-27 02:32N 34°39' E 135°20'3 3.6
2015-Jul-27 01:33N 34°37' E 135°24'8 7.1
2015-Jul-27 00:30N 34°41' E 135°16'2 1.8
2015-Jul-26 23:23N 34°39' E 135°15'3 3.1
2015-Jul-26 22:33N 34°41' E 135°13'0 0.0
2015-Jul-26 21:33N 34°41' E 135°13'0 0.0
2015-Jul-26 20:30N 34°41' E 135°13'0 0.0
2015-Jul-26 19:30N 34°41' E 135°13'0 0.0
2015-Jul-26 18:30N 34°41' E 135°13'0 0.0
2015-Jul-26 17:30N 34°41' E 135°13'0 0.0
2015-Jul-26 16:33N 34°41' E 135°13'0 0.0
2015-Jul-26 15:33N 34°41' E 135°13'0 0.0
2015-Jul-26 14:33N 34°41' E 135°13'0 0.0
2015-Jul-26 13:33N 34°41' E 135°13'0 0.0
2015-Jul-26 12:33N 34°41' E 135°13'0 0.0
2015-Jul-26 11:24N 34°41' E 135°13'0 0.0
2015-Jul-26 10:03N 34°41' E 135°13'0 0.0
2015-Jul-26 09:33N 34°41' E 135°13'0 0.0
2015-Jul-26 08:18N 34°41' E 135°13'0 0.0
2015-Jul-26 07:30N 34°41' E 135°13'0 0.0
2015-Jul-26 06:30N 34°41' E 135°13'0 0.0
2015-Jul-26 05:29N 34°41' E 135°13'0 0.0
2015-Jul-26 04:29N 34°41' E 135°13'0 0.0
2015-Jul-26 03:32N 34°41' E 135°13'0 0.0
2015-Jul-26 02:32N 34°41' E 135°13'0 0.0
2015-Jul-26 01:32N 34°41' E 135°13'0 0.0
2015-Jul-26 00:17N 34°41' E 135°13'0 0.0
2015-Jul-25 23:30N 34°41' E 135°13'0 0.0
2015-Jul-25 22:29N 34°41' E 135°13'0 0.0
2015-Jul-25 21:30N 34°41' E 135°13'0 0.0
2015-Jul-25 20:30N 34°41' E 135°13'0 0.0
2015-Jul-25 19:30N 34°41' E 135°13'0 0.0
2015-Jul-25 18:30N 34°41' E 135°13'0 0.0
2015-Jul-25 17:27N 34°41' E 135°13'0 0.0
2015-Jul-25 16:33N 34°41' E 135°13'0 0.0
2015-Jul-25 15:23N 34°41' E 135°13'4 4.4
2015-Jul-25 14:33N 34°38' E 135°14'14 0.5
2015-Jul-24 08:14N 34°37' E 134°58'811.3
2015-Jul-24 07:33N 34°36' E 135°07'9 9.3
2015-Jul-24 06:33N 34°41' E 135°17'0 0.1
2015-Jul-24 05:10N 34°41' E 135°17'2 2.5
2015-Jul-24 04:11N 34°39' E 135°15'1 1.2
2015-Jul-24 03:27N 34°40' E 135°15'0 0.0
2015-Jul-24 02:15N 34°40' E 135°15'0 0.0
2015-Jul-24 01:33N 34°40' E 135°15'0 0.2
2015-Jul-24 00:32N 34°40' E 135°14'1 0.6
2015-Jul-23 23:29N 34°40' E 135°14'2 0.9
2015-Jul-23 21:33N 34°38' E 135°15'1 0.6
2015-Jul-23 20:33N 34°38' E 135°15'10 0.3
2015-Jul-22 09:33N 34°36' E 135°03'1110.6
2015-Jul-22 08:32N 34°38' E 135°16'8 5.3
2015-Jul-22 07:06N 34°38' E 135°25'610.6
2015-Jul-22 06:32N 34°40' E 135°19'2 1.7
2015-Jul-22 05:33N 34°41' E 135°17'1 0.5
2015-Jul-22 04:27N 34°41' E 135°16'0 0.0
2015-Jul-22 03:33N 34°41' E 135°16'2 1.7
2015-Jul-22 02:27N 34°39' E 135°15'2 1.8
2015-Jul-22 01:24N 34°41' E 135°16'0 0.0
2015-Jul-22 00:33N 34°41' E 135°16'1 0.9
2015-Jul-21 23:24N 34°41' E 135°17'7 3.9
2015-Jul-21 21:33N 34°36' E 135°11'12 0.4
2015-Jul-20 13:25N 34°37' E 134°56'1113.0
2015-Jul-20 12:33N 34°36' E 135°10'7 6.8
2015-Jul-20 11:29N 34°41' E 135°17'0 0.0
2015-Jul-20 10:33N 34°41' E 135°17'2 2.3
2015-Jul-20 09:33N 34°39' E 135°15'2 2.3
2015-Jul-20 08:33N 34°37' E 135°13'  

Dump ship's entire track history